createdAt,value
2018-10-16T00:04:19.289Z,9.70
2018-10-16T00:09:48.541Z,9.70
2018-10-16T00:15:17.816Z,9.70
2018-10-16T00:20:47.042Z,9.70
2018-10-16T00:26:16.403Z,9.70
2018-10-16T00:31:45.749Z,9.70
2018-10-16T00:37:16.021Z,9.70
2018-10-16T00:42:45.270Z,9.70
2018-10-16T00:48:14.545Z,9.70
2018-10-16T00:53:43.794Z,9.60
2018-10-16T00:59:13.073Z,9.60
2018-10-16T01:04:42.288Z,9.60
2018-10-16T01:10:12.532Z,9.50
2018-10-16T01:15:41.777Z,9.50
2018-10-16T01:21:10.988Z,9.40
2018-10-16T01:26:40.324Z,9.30
2018-10-16T01:32:09.613Z,9.30
2018-10-16T01:37:38.925Z,9.30
2018-10-16T01:43:08.145Z,9.30
2018-10-16T01:48:37.940Z,9.20
2018-10-16T01:54:07.414Z,9.20
2018-10-16T01:59:36.752Z,9.10
2018-10-16T02:05:07.167Z,9.10
2018-10-16T02:10:36.516Z,9.10
2018-10-16T02:16:05.872Z,9.10
2018-10-16T02:21:35.064Z,9.10
2018-10-16T02:27:04.356Z,9.10
2018-10-16T02:32:33.612Z,9.10
2018-10-16T02:38:02.808Z,9.10
2018-10-16T02:43:31.989Z,9.10
2018-10-16T02:49:01.329Z,9.10
2018-10-16T02:54:30.647Z,9.10
2018-10-16T03:00:01.565Z,9.10
2018-10-16T03:05:31.568Z,9.10
2018-10-16T03:11:01.032Z,9.00
2018-10-16T03:16:30.256Z,9.00
2018-10-16T03:21:59.494Z,9.00
2018-10-16T03:27:28.684Z,8.90
2018-10-16T03:32:57.992Z,8.90
2018-10-16T03:38:27.260Z,8.80
2018-10-16T03:44:01.160Z,8.70
2018-10-16T03:49:30.411Z,8.70
2018-10-16T03:54:59.750Z,8.60
2018-10-16T04:00:28.935Z,8.50
2018-10-16T04:05:58.230Z,8.50
2018-10-16T04:11:27.488Z,8.50
2018-10-16T04:16:56.861Z,8.40
2018-10-16T04:22:26.680Z,8.30
2018-10-16T04:27:55.952Z,8.30
2018-10-16T04:33:25.420Z,8.30
2018-10-16T04:38:55.763Z,8.20
2018-10-16T04:44:25.164Z,8.20
2018-10-16T04:49:54.717Z,8.20
2018-10-16T04:55:24.325Z,8.10
2018-10-16T05:00:53.668Z,8.10
2018-10-16T05:06:23.912Z,8.10
2018-10-16T05:11:54.422Z,8.00
2018-10-16T05:17:24.215Z,7.90
2018-10-16T05:22:53.876Z,7.90
2018-10-16T05:28:23.136Z,8.00
2018-10-16T05:33:52.348Z,7.90
2018-10-16T05:39:21.643Z,7.90
2018-10-16T05:44:50.824Z,7.90
2018-10-16T05:50:20.067Z,7.80
2018-10-16T05:56:01.964Z,7.80
2018-10-16T06:01:31.201Z,7.80
2018-10-16T06:07:00.517Z,7.80
2018-10-16T06:12:29.785Z,7.90
2018-10-16T06:17:59.047Z,8.00
2018-10-16T06:23:28.416Z,8.10
2018-10-16T06:28:57.753Z,8.20
2018-10-16T06:34:27.016Z,8.50
2018-10-16T06:39:56.267Z,8.70
2018-10-16T06:45:25.503Z,9.10
2018-10-16T06:50:54.842Z,9.30
2018-10-16T06:56:24.252Z,9.70
2018-10-16T07:01:53.573Z,10.00
2018-10-16T07:07:22.911Z,10.30
2018-10-16T07:12:52.236Z,10.70
2018-10-16T07:18:21.585Z,11.00
2018-10-16T07:23:50.959Z,11.30
2018-10-16T07:29:20.221Z,11.60
2018-10-16T07:34:49.490Z,11.80
2018-10-16T07:40:18.781Z,12.10
2018-10-16T07:45:48.050Z,12.30
2018-10-16T07:51:17.330Z,12.60
2018-10-16T07:56:46.628Z,13.00
2018-10-16T08:02:15.845Z,13.20
2018-10-16T08:07:45.164Z,13.50
2018-10-16T08:13:14.411Z,13.80
2018-10-16T08:18:43.668Z,14.10
2018-10-16T08:24:13.055Z,14.40
2018-10-16T08:29:43.465Z,14.70
2018-10-16T08:35:12.737Z,14.90
2018-10-16T08:40:42.067Z,15.20
2018-10-16T08:46:28.637Z,15.50
2018-10-16T08:51:59.416Z,15.80
2018-10-16T08:57:28.652Z,16.00
2018-10-16T09:02:57.906Z,16.30
2018-10-16T09:08:28.318Z,16.60
2018-10-16T09:13:57.582Z,16.80
2018-10-16T09:19:26.810Z,17.10
2018-10-16T09:24:56.106Z,17.30
2018-10-16T09:30:25.509Z,17.60
2018-10-16T09:35:54.748Z,17.80
2018-10-16T09:41:24.053Z,18.00
2018-10-16T09:46:53.332Z,18.30
2018-10-16T09:52:22.596Z,18.60
2018-10-16T09:57:51.879Z,18.80
2018-10-16T10:03:21.143Z,19.10
2018-10-16T10:08:50.356Z,19.30
2018-10-16T10:14:19.600Z,19.50
2018-10-16T10:19:48.990Z,19.90
2018-10-16T10:25:18.312Z,20.10
2018-10-16T10:30:47.557Z,20.20
2018-10-16T10:36:16.792Z,20.40
2018-10-16T10:41:46.053Z,20.80
2018-10-16T10:47:15.324Z,21.00
2018-10-16T10:52:44.584Z,21.30
2018-10-16T10:58:13.881Z,21.40
2018-10-16T11:03:43.158Z,21.40
2018-10-16T11:09:13.305Z,21.50
2018-10-16T11:14:42.571Z,21.80
2018-10-16T11:20:13.152Z,21.90
2018-10-16T11:25:42.385Z,22.10
2018-10-16T11:31:11.677Z,22.30
2018-10-16T11:36:40.940Z,22.40
2018-10-16T11:42:10.272Z,22.60
2018-10-16T11:47:39.535Z,22.50
2018-10-16T11:53:08.816Z,22.70
2018-10-16T11:58:38.110Z,22.80
2018-10-16T12:04:07.423Z,23.00
2018-10-16T12:09:36.664Z,23.20
2018-10-16T12:15:06.497Z,23.30
2018-10-16T12:20:39.943Z,23.40
2018-10-16T12:26:09.313Z,23.30
2018-10-16T12:31:38.550Z,23.20
2018-10-16T12:37:07.875Z,23.20
2018-10-16T12:42:37.098Z,23.30
2018-10-16T12:48:06.585Z,23.30
2018-10-16T12:53:35.790Z,23.20
2018-10-16T12:59:05.131Z,23.50
2018-10-16T13:04:34.440Z,24.60
2018-10-16T13:10:04.518Z,25.30
2018-10-16T13:15:34.800Z,25.30
2018-10-16T13:21:04.126Z,25.20
2018-10-16T13:26:33.341Z,25.40
2018-10-16T13:32:02.683Z,25.90
2018-10-16T13:37:32.016Z,26.70
2018-10-16T13:43:01.400Z,27.20
2018-10-16T13:48:30.608Z,28.10
2018-10-16T13:54:01.090Z,29.30
2018-10-16T13:59:30.670Z,30.30
2018-10-16T14:05:00.170Z,30.90
2018-10-16T14:10:29.337Z,31.10
2018-10-16T14:15:58.732Z,31.10
2018-10-16T14:21:28.144Z,31.00
2018-10-16T14:26:57.412Z,31.30
2018-10-16T14:32:26.652Z,31.50
2018-10-16T14:37:55.923Z,31.50
2018-10-16T14:43:25.267Z,31.70
2018-10-16T14:48:54.537Z,31.20
2018-10-16T14:54:23.846Z,30.80
2018-10-16T14:59:53.138Z,30.10
2018-10-16T15:05:22.521Z,28.60
2018-10-16T15:10:51.793Z,26.80
2018-10-16T15:16:21.090Z,25.60
2018-10-16T15:21:50.480Z,24.70
2018-10-16T15:27:19.884Z,23.90
2018-10-16T15:32:49.148Z,23.20
2018-10-16T15:38:18.407Z,22.60
2018-10-16T15:43:47.793Z,22.00
2018-10-16T15:49:17.731Z,21.50
2018-10-16T15:54:47.118Z,21.10
2018-10-16T16:00:17.528Z,20.70
2018-10-16T16:05:46.874Z,20.50
2018-10-16T16:11:16.497Z,20.20
2018-10-16T16:16:46.126Z,19.90
2018-10-16T16:22:15.757Z,19.60
2018-10-16T16:27:45.079Z,19.30
2018-10-16T16:33:14.533Z,19.10
2018-10-16T16:38:44.082Z,18.80
2018-10-16T16:44:13.592Z,18.60
2018-10-16T16:49:43.037Z,18.30
2018-10-16T16:55:14.801Z,18.20
2018-10-16T17:00:44.140Z,18.00
2018-10-16T17:06:13.839Z,17.70
2018-10-16T17:11:43.330Z,17.50
2018-10-16T17:17:12.737Z,17.30
2018-10-16T17:22:42.149Z,17.20
2018-10-16T17:28:11.488Z,17.00
2018-10-16T17:33:40.701Z,16.70
2018-10-16T17:39:10.959Z,16.50
2018-10-16T17:44:40.261Z,16.40
2018-10-16T17:50:12.735Z,16.20
2018-10-16T17:55:42.186Z,16.00
2018-10-16T18:01:11.848Z,15.80
2018-10-16T18:06:41.254Z,15.60
2018-10-16T18:12:10.749Z,15.50
2018-10-16T18:17:40.912Z,15.30
2018-10-16T18:23:10.333Z,15.20
2018-10-16T18:28:39.729Z,15.00
2018-10-16T18:34:09.289Z,14.80
2018-10-16T18:39:38.627Z,14.60
2018-10-16T18:45:09.220Z,14.50
2018-10-16T18:50:38.784Z,14.40
2018-10-16T18:56:08.198Z,14.30
2018-10-16T19:01:37.466Z,14.10
2018-10-16T19:07:08.000Z,14.00
2018-10-16T19:12:41.169Z,13.90
2018-10-16T19:18:10.860Z,13.70
2018-10-16T19:23:40.213Z,13.60
2018-10-16T19:29:09.501Z,13.40
2018-10-16T19:34:38.799Z,13.30
2018-10-16T19:40:08.260Z,13.10
2018-10-16T19:45:37.541Z,13.00
2018-10-16T19:51:07.124Z,12.90
2018-10-16T19:56:36.574Z,12.80
2018-10-16T20:02:07.048Z,12.70
2018-10-16T20:07:36.482Z,12.50
2018-10-16T20:13:05.932Z,12.40
2018-10-16T20:18:35.348Z,12.30
2018-10-16T20:24:05.059Z,12.20
2018-10-16T20:29:34.296Z,12.10
2018-10-16T20:35:03.886Z,12.00
2018-10-16T20:40:33.228Z,11.90
2018-10-16T20:46:02.512Z,11.80
2018-10-16T20:51:31.793Z,11.80
2018-10-16T20:57:01.125Z,11.70
2018-10-16T21:02:30.578Z,11.70
2018-10-16T21:07:59.858Z,11.60
2018-10-16T21:13:29.202Z,11.60
2018-10-16T21:18:58.526Z,11.50
2018-10-16T21:24:27.820Z,11.50
2018-10-16T21:29:57.464Z,11.40
2018-10-16T21:35:26.690Z,11.40
2018-10-16T21:40:56.030Z,11.30
2018-10-16T21:46:25.278Z,11.30
2018-10-16T21:51:54.549Z,11.20
2018-10-16T21:57:23.876Z,11.20
2018-10-16T22:02:53.213Z,11.10
2018-10-16T22:08:22.533Z,11.00
2018-10-16T22:13:51.849Z,11.00
2018-10-16T22:19:21.149Z,10.90
2018-10-16T22:24:50.539Z,10.80
2018-10-16T22:30:19.803Z,10.80
2018-10-16T22:35:49.021Z,10.70
2018-10-16T22:41:18.366Z,10.70
2018-10-16T22:46:47.755Z,10.60
2018-10-16T22:52:16.996Z,10.60
2018-10-16T22:57:46.229Z,10.50
2018-10-16T23:03:15.596Z,10.50
2018-10-16T23:08:44.873Z,10.40
2018-10-16T23:14:14.227Z,10.30
2018-10-16T23:19:43.489Z,10.20
2018-10-16T23:25:12.818Z,10.20
2018-10-16T23:30:42.041Z,10.10
2018-10-16T23:36:11.384Z,10.10
2018-10-16T23:41:41.485Z,10.00
2018-10-16T23:47:10.807Z,10.00
2018-10-16T23:52:39.992Z,9.90
2018-10-16T23:58:09.231Z,9.90
